sensor_id;sensor_type;location;lat;lon;timestamp;P1;P2;P0
65803;PMS5003;65658;63.740;34.316;2023-04-06T00:01:43;132;138;
65803;PMS5003;65658;63.740;34.316;2023-04-06T00:05:32;93;101;
65803;PMS5003;65658;63.740;34.316;2023-04-06T00:09:24;79;89;
65803;PMS5003;65658;63.740;34.316;2023-04-06T00:13:15;113;117;
65803;PMS5003;65658;63.740;34.316;2023-04-06T00:17:17;118;124;
65803;PMS5003;65658;63.740;34.316;2023-04-06T00:21:11;114;120;
65803;PMS5003;65658;63.740;34.316;2023-04-06T00:25:01;123;131;
65803;PMS5003;65658;63.740;34.316;2023-04-06T00:32:59;102;105;
65803;PMS5003;65658;63.740;34.316;2023-04-06T00:40:42;122;124;
65803;PMS5003;65658;63.740;34.316;2023-04-06T00:44:33;133;140;
65803;PMS5003;65658;63.740;34.316;2023-04-06T00:52:54;126;133;
65803;PMS5003;65658;63.740;34.316;2023-04-06T00:56:44;122;125;
65803;PMS5003;65658;63.740;34.316;2023-04-06T01:00:46;91;99;
65803;PMS5003;65658;63.740;34.316;2023-04-06T01:08:32;50;60;
65803;PMS5003;65658;63.740;34.316;2023-04-06T01:12:22;59;71;
65803;PMS5003;65658;63.740;34.316;2023-04-06T01:16:12;56;69;
65803;PMS5003;65658;63.740;34.316;2023-04-06T01:20:05;60;71;
65803;PMS5003;65658;63.740;34.316;2023-04-06T01:23:56;54;62;
65803;PMS5003;65658;63.740;34.316;2023-04-06T01:27:45;56;68;
65803;PMS5003;65658;63.740;34.316;2023-04-06T01:31:35;59;73;
65803;PMS5003;65658;63.740;34.316;2023-04-06T01:35:26;51;63;
65803;PMS5003;65658;63.740;34.316;2023-04-06T01:39:16;50;60;
65803;PMS5003;65658;63.740;34.316;2023-04-06T01:43:04;51;62;
65803;PMS5003;65658;63.740;34.316;2023-04-06T01:46:54;53;63;
65803;PMS5003;65658;63.740;34.316;2023-04-06T01:50:44;53;65;
65803;PMS5003;65658;63.740;34.316;2023-04-06T01:54:35;59;71;
65803;PMS5003;65658;63.740;34.316;2023-04-06T01:58:35;59;73;
65803;PMS5003;65658;63.740;34.316;2023-04-06T02:02:24;52;62;
65803;PMS5003;65658;63.740;34.316;2023-04-06T02:10:11;62;78;
65803;PMS5003;65658;63.740;34.316;2023-04-06T02:14:01;73;86;
65803;PMS5003;65658;63.740;34.316;2023-04-06T02:17:57;97;100;
65803;PMS5003;65658;63.740;34.316;2023-04-06T02:26:02;129;133;
65803;PMS5003;65658;63.740;34.316;2023-04-06T02:29:54;134;138;
65803;PMS5003;65658;63.740;34.316;2023-04-06T02:33:57;97;101;
65803;PMS5003;65658;63.740;34.316;2023-04-06T02:37:52;105;108;
65803;PMS5003;65658;63.740;34.316;2023-04-06T02:41:55;115;121;
65803;PMS5003;65658;63.740;34.316;2023-04-06T02:45:57;129;130;
65803;PMS5003;65658;63.740;34.316;2023-04-06T02:50:21;120;125;
65803;PMS5003;65658;63.740;34.316;2023-04-06T02:54:20;151;161;
65803;PMS5003;65658;63.740;34.316;2023-04-06T03:02:51;122;124;
65803;PMS5003;65658;63.740;34.316;2023-04-06T03:06:45;126;133;
65803;PMS5003;65658;63.740;34.316;2023-04-06T03:10:58;80;93;
65803;PMS5003;65658;63.740;34.316;2023-04-06T03:14:50;60;73;
65803;PMS5003;65658;63.740;34.316;2023-04-06T03:18:40;55;68;
65803;PMS5003;65658;63.740;34.316;2023-04-06T03:30:40;61;76;
65803;PMS5003;65658;63.740;34.316;2023-04-06T03:34:33;68;84;
65803;PMS5003;65658;63.740;34.316;2023-04-06T03:42:21;92;97;
65803;PMS5003;65658;63.740;34.316;2023-04-06T03:46:14;95;103;
65803;PMS5003;65658;63.740;34.316;2023-04-06T03:50:08;82;92;
65803;PMS5003;65658;63.740;34.316;2023-04-06T03:54:01;65;80;
65803;PMS5003;65658;63.740;34.316;2023-04-06T03:57:53;66;82;
65803;PMS5003;65658;63.740;34.316;2023-04-06T04:09:58;102;102;
65803;PMS5003;65658;63.740;34.316;2023-04-06T04:13:48;88;94;
65803;PMS5003;65658;63.740;34.316;2023-04-06T04:17:41;75;86;
65803;PMS5003;65658;63.740;34.316;2023-04-06T04:21:41;53;65;
65803;PMS5003;65658;63.740;34.316;2023-04-06T04:25:26;43;51;
65803;PMS5003;65658;63.740;34.316;2023-04-06T04:34:19;27;32;
65803;PMS5003;65658;63.740;34.316;2023-04-06T04:38:32;37;43;
65803;PMS5003;65658;63.740;34.316;2023-04-06T04:42:45;33;35;
65803;PMS5003;65658;63.740;34.316;2023-04-06T04:46:34;32;33;
65803;PMS5003;65658;63.740;34.316;2023-04-06T04:50:22;34;35;
65803;PMS5003;65658;63.740;34.316;2023-04-06T04:54:24;27;28;
65803;PMS5003;65658;63.740;34.316;2023-04-06T04:58:13;26;26;
65803;PMS5003;65658;63.740;34.316;2023-04-06T05:02:03;38;44;
65803;PMS5003;65658;63.740;34.316;2023-04-06T05:06:05;50;61;
65803;PMS5003;65658;63.740;34.316;2023-04-06T05:09:55;44;51;
65803;PMS5003;65658;63.740;34.316;2023-04-06T05:18:25;37;47;
65803;PMS5003;65658;63.740;34.316;2023-04-06T05:22:39;39;46;
65803;PMS5003;65658;63.740;34.316;2023-04-06T05:26:26;23;24;
65803;PMS5003;65658;63.740;34.316;2023-04-06T05:30:13;19;19;
65803;PMS5003;65658;63.740;34.316;2023-04-06T05:34:02;17;17;
65803;PMS5003;65658;63.740;34.316;2023-04-06T05:37:50;18;18;
65803;PMS5003;65658;63.740;34.316;2023-04-06T05:41:48;8;8;
65803;PMS5003;65658;63.740;34.316;2023-04-06T05:45:34;8;8;
65803;PMS5003;65658;63.740;34.316;2023-04-06T05:49:20;6;7;
65803;PMS5003;65658;63.740;34.316;2023-04-06T05:53:07;6;6;
65803;PMS5003;65658;63.740;34.316;2023-04-06T06:00:44;3;3;
65803;PMS5003;65658;63.740;34.316;2023-04-06T06:04:30;5;5;
65803;PMS5003;65658;63.740;34.316;2023-04-06T06:08:17;8;9;
65803;PMS5003;65658;63.740;34.316;2023-04-06T06:27:53;46;57;
65803;PMS5003;65658;63.740;34.316;2023-04-06T06:31:44;40;49;
65803;PMS5003;65658;63.740;34.316;2023-04-06T06:35:47;40;49;
65803;PMS5003;65658;63.740;34.316;2023-04-06T06:39:47;41;49;
65803;PMS5003;65658;63.740;34.316;2023-04-06T06:43:35;15;15;
65803;PMS5003;65658;63.740;34.316;2023-04-06T06:47:21;11;11;
65803;PMS5003;65658;63.740;34.316;2023-04-06T06:54:59;8;8;
65803;PMS5003;65658;63.740;34.316;2023-04-06T06:58:46;7;8;
65803;PMS5003;65658;63.740;34.316;2023-04-06T07:02:35;3;3;
65803;PMS5003;65658;63.740;34.316;2023-04-06T07:06:21;4;4;
65803;PMS5003;65658;63.740;34.316;2023-04-06T07:10:08;3;3;
65803;PMS5003;65658;63.740;34.316;2023-04-06T07:13:54;1;1;
65803;PMS5003;65658;63.740;34.316;2023-04-06T07:17:40;3;3;
65803;PMS5003;65658;63.740;34.316;2023-04-06T07:21:26;2;3;
65803;PMS5003;65658;63.740;34.316;2023-04-06T07:25:13;3;3;
65803;PMS5003;65658;63.740;34.316;2023-04-06T07:28:58;3;3;
65803;PMS5003;65658;63.740;34.316;2023-04-06T07:32:45;5;5;
65803;PMS5003;65658;63.740;34.316;2023-04-06T07:36:31;4;4;
65803;PMS5003;65658;63.740;34.316;2023-04-06T07:40:18;4;4;
65803;PMS5003;65658;63.740;34.316;2023-04-06T07:44:05;2;2;
65803;PMS5003;65658;63.740;34.316;2023-04-06T07:47:50;11;11;
65803;PMS5003;65658;63.740;34.316;2023-04-06T07:55:38;2;2;
65803;PMS5003;65658;63.740;34.316;2023-04-06T07:59:25;1;1;
65803;PMS5003;65658;63.740;34.316;2023-04-06T08:03:11;3;3;
65803;PMS5003;65658;63.740;34.316;2023-04-06T08:06:58;2;3;
65803;PMS5003;65658;63.740;34.316;2023-04-06T08:10:44;2;2;
65803;PMS5003;65658;63.740;34.316;2023-04-06T08:18:32;1;1;
65803;PMS5003;65658;63.740;34.316;2023-04-06T08:22:41;3;4;
65803;PMS5003;65658;63.740;34.316;2023-04-06T08:26:26;7;8;
65803;PMS5003;65658;63.740;34.316;2023-04-06T08:30:12;1;1;
65803;PMS5003;65658;63.740;34.316;2023-04-06T08:33:59;1;2;
65803;PMS5003;65658;63.740;34.316;2023-04-06T08:37:45;1;2;
65803;PMS5003;65658;63.740;34.316;2023-04-06T08:49:37;1;1;
65803;PMS5003;65658;63.740;34.316;2023-04-06T08:57:25;1;1;
65803;PMS5003;65658;63.740;34.316;2023-04-06T09:01:12;2;2;
65803;PMS5003;65658;63.740;34.316;2023-04-06T09:09:03;1;1;
65803;PMS5003;65658;63.740;34.316;2023-04-06T09:16:43;1;1;
65803;PMS5003;65658;63.740;34.316;2023-04-06T09:48:09;0;0;
65803;PMS5003;65658;63.740;34.316;2023-04-06T09:51:59;1;1;
65803;PMS5003;65658;63.740;34.316;2023-04-06T09:59:50;1;1;
65803;PMS5003;65658;63.740;34.316;2023-04-06T10:03:43;1;1;
65803;PMS5003;65658;63.740;34.316;2023-04-06T10:07:30;1;2;
65803;PMS5003;65658;63.740;34.316;2023-04-06T10:11:17;0;0;
65803;PMS5003;65658;63.740;34.316;2023-04-06T10:15:03;0;0;
65803;PMS5003;65658;63.740;34.316;2023-04-06T10:18:52;0;0;
65803;PMS5003;65658;63.740;34.316;2023-04-06T10:23:04;0;0;
65803;PMS5003;65658;63.740;34.316;2023-04-06T10:30:42;0;0;
65803;PMS5003;65658;63.740;34.316;2023-04-06T10:34:40;2;2;
65803;PMS5003;65658;63.740;34.316;2023-04-06T10:42:17;2;2;
65803;PMS5003;65658;63.740;34.316;2023-04-06T10:46:04;2;2;
65803;PMS5003;65658;63.740;34.316;2023-04-06T10:49:55;10;10;
65803;PMS5003;65658;63.740;34.316;2023-04-06T10:53:55;117;128;
65803;PMS5003;65658;63.740;34.316;2023-04-06T10:57:49;193;227;
65803;PMS5003;65658;63.740;34.316;2023-04-06T11:01:44;144;163;
65803;PMS5003;65658;63.740;34.316;2023-04-06T11:05:37;86;101;
65803;PMS5003;65658;63.740;34.316;2023-04-06T11:13:25;135;156;
65803;PMS5003;65658;63.740;34.316;2023-04-06T11:17:25;135;154;
65803;PMS5003;65658;63.740;34.316;2023-04-06T11:25:26;97;111;
65803;PMS5003;65658;63.740;34.316;2023-04-06T11:29:30;30;31;
65803;PMS5003;65658;63.740;34.316;2023-04-06T11:37:13;22;22;
65803;PMS5003;65658;63.740;34.316;2023-04-06T11:41:00;5;5;
65803;PMS5003;65658;63.740;34.316;2023-04-06T11:44:46;3;3;
65803;PMS5003;65658;63.740;34.316;2023-04-06T11:48:32;3;3;
65803;PMS5003;65658;63.740;34.316;2023-04-06T11:52:24;0;0;
65803;PMS5003;65658;63.740;34.316;2023-04-06T12:00:00;2;2;
65803;PMS5003;65658;63.740;34.316;2023-04-06T12:07:38;0;0;
65803;PMS5003;65658;63.740;34.316;2023-04-06T12:11:24;2;2;
65803;PMS5003;65658;63.740;34.316;2023-04-06T12:15:11;3;3;
65803;PMS5003;65658;63.740;34.316;2023-04-06T12:18:57;2;2;
65803;PMS5003;65658;63.740;34.316;2023-04-06T12:30:35;1;1;
65803;PMS5003;65658;63.740;34.316;2023-04-06T12:38:12;3;3;
65803;PMS5003;65658;63.740;34.316;2023-04-06T12:41:58;2;2;
65803;PMS5003;65658;63.740;34.316;2023-04-06T12:45:45;2;2;
65803;PMS5003;65658;63.740;34.316;2023-04-06T12:49:31;2;2;
65803;PMS5003;65658;63.740;34.316;2023-04-06T12:53:18;1;1;
65803;PMS5003;65658;63.740;34.316;2023-04-06T12:57:04;2;2;
65803;PMS5003;65658;63.740;34.316;2023-04-06T13:00:51;2;3;
65803;PMS5003;65658;63.740;34.316;2023-04-06T13:04:37;4;4;
65803;PMS5003;65658;63.740;34.316;2023-04-06T13:12:17;3;3;
65803;PMS5003;65658;63.740;34.316;2023-04-06T13:19:56;2;2;
65803;PMS5003;65658;63.740;34.316;2023-04-06T13:23:42;3;3;
65803;PMS5003;65658;63.740;34.316;2023-04-06T13:27:29;3;3;
65803;PMS5003;65658;63.740;34.316;2023-04-06T13:31:15;2;2;
65803;PMS5003;65658;63.740;34.316;2023-04-06T13:35:01;4;4;
65803;PMS5003;65658;63.740;34.316;2023-04-06T13:38:48;2;2;
65803;PMS5003;65658;63.740;34.316;2023-04-06T13:42:34;2;2;
65803;PMS5003;65658;63.740;34.316;2023-04-06T13:46:21;2;2;
65803;PMS5003;65658;63.740;34.316;2023-04-06T13:50:07;2;2;
65803;PMS5003;65658;63.740;34.316;2023-04-06T13:57:55;1;1;
65803;PMS5003;65658;63.740;34.316;2023-04-06T14:01:41;1;1;
65803;PMS5003;65658;63.740;34.316;2023-04-06T14:05:31;1;1;
65803;PMS5003;65658;63.740;34.316;2023-04-06T14:09:17;1;1;
65803;PMS5003;65658;63.740;34.316;2023-04-06T14:13:15;1;1;
65803;PMS5003;65658;63.740;34.316;2023-04-06T14:21:14;1;1;
65803;PMS5003;65658;63.740;34.316;2023-04-06T14:25:00;3;3;
65803;PMS5003;65658;63.740;34.316;2023-04-06T14:28:47;2;2;
65803;PMS5003;65658;63.740;34.316;2023-04-06T14:32:33;1;1;
65803;PMS5003;65658;63.740;34.316;2023-04-06T14:36:20;17;17;
65803;PMS5003;65658;63.740;34.316;2023-04-06T14:40:08;42;49;
65803;PMS5003;65658;63.740;34.316;2023-04-06T14:44:07;82;90;
65803;PMS5003;65658;63.740;34.316;2023-04-06T14:48:08;14;14;
65803;PMS5003;65658;63.740;34.316;2023-04-06T14:59:44;6;6;
65803;PMS5003;65658;63.740;34.316;2023-04-06T15:03:33;5;5;
65803;PMS5003;65658;63.740;34.316;2023-04-06T15:07:20;35;45;
65803;PMS5003;65658;63.740;34.316;2023-04-06T15:15:20;34;39;
65803;PMS5003;65658;63.740;34.316;2023-04-06T15:19:08;25;27;
65803;PMS5003;65658;63.740;34.316;2023-04-06T15:22:56;8;10;
65803;PMS5003;65658;63.740;34.316;2023-04-06T15:26:44;33;39;
65803;PMS5003;65658;63.740;34.316;2023-04-06T15:30:30;8;8;
65803;PMS5003;65658;63.740;34.316;2023-04-06T15:34:17;40;47;
65803;PMS5003;65658;63.740;34.316;2023-04-06T15:38:22;51;64;
65803;PMS5003;65658;63.740;34.316;2023-04-06T15:42:14;54;66;
65803;PMS5003;65658;63.740;34.316;2023-04-06T15:46:08;58;75;
65803;PMS5003;65658;63.740;34.316;2023-04-06T15:50:11;26;29;
65803;PMS5003;65658;63.740;34.316;2023-04-06T15:54:09;19;21;
65803;PMS5003;65658;63.740;34.316;2023-04-06T16:01:52;37;44;
65803;PMS5003;65658;63.740;34.316;2023-04-06T16:13:56;50;65;
65803;PMS5003;65658;63.740;34.316;2023-04-06T16:17:49;179;219;
65803;PMS5003;65658;63.740;34.316;2023-04-06T16:29:49;111;127;
65803;PMS5003;65658;63.740;34.316;2023-04-06T16:41:38;55;71;
65803;PMS5003;65658;63.740;34.316;2023-04-06T16:45:30;84;95;
65803;PMS5003;65658;63.740;34.316;2023-04-06T16:49:33;69;80;
65803;PMS5003;65658;63.740;34.316;2023-04-06T16:53:25;105;118;
65803;PMS5003;65658;63.740;34.316;2023-04-06T16:57:16;109;130;
65803;PMS5003;65658;63.740;34.316;2023-04-06T17:09:08;85;99;
65803;PMS5003;65658;63.740;34.316;2023-04-06T17:13:05;65;78;
65803;PMS5003;65658;63.740;34.316;2023-04-06T17:17:19;84;97;
65803;PMS5003;65658;63.740;34.316;2023-04-06T17:29:29;48;63;
65803;PMS5003;65658;63.740;34.316;2023-04-06T17:33:30;53;67;
65803;PMS5003;65658;63.740;34.316;2023-04-06T17:37:21;25;27;
65803;PMS5003;65658;63.740;34.316;2023-04-06T17:41:21;18;20;
65803;PMS5003;65658;63.740;34.316;2023-04-06T17:45:07;9;10;
65803;PMS5003;65658;63.740;34.316;2023-04-06T17:49:05;10;11;
65803;PMS5003;65658;63.740;34.316;2023-04-06T17:52:51;12;12;
65803;PMS5003;65658;63.740;34.316;2023-04-06T17:56:38;10;11;
65803;PMS5003;65658;63.740;34.316;2023-04-06T18:04:16;7;9;
65803;PMS5003;65658;63.740;34.316;2023-04-06T18:08:01;10;10;
65803;PMS5003;65658;63.740;34.316;2023-04-06T18:15:39;12;13;
65803;PMS5003;65658;63.740;34.316;2023-04-06T18:19:26;9;10;
65803;PMS5003;65658;63.740;34.316;2023-04-06T18:23:13;7;7;
65803;PMS5003;65658;63.740;34.316;2023-04-06T18:26:59;7;7;
65803;PMS5003;65658;63.740;34.316;2023-04-06T18:34:36;6;6;
65803;PMS5003;65658;63.740;34.316;2023-04-06T18:38:22;4;5;
65803;PMS5003;65658;63.740;34.316;2023-04-06T18:42:09;8;11;
65803;PMS5003;65658;63.740;34.316;2023-04-06T18:45:55;9;10;
65803;PMS5003;65658;63.740;34.316;2023-04-06T18:53:33;8;8;
65803;PMS5003;65658;63.740;34.316;2023-04-06T18:57:20;16;18;
65803;PMS5003;65658;63.740;34.316;2023-04-06T19:04:59;12;12;
65803;PMS5003;65658;63.740;34.316;2023-04-06T19:08:58;8;8;
65803;PMS5003;65658;63.740;34.316;2023-04-06T19:12:56;8;8;
65803;PMS5003;65658;63.740;34.316;2023-04-06T19:16:42;3;3;
65803;PMS5003;65658;63.740;34.316;2023-04-06T19:20:28;4;5;
65803;PMS5003;65658;63.740;34.316;2023-04-06T19:24:18;6;8;
65803;PMS5003;65658;63.740;34.316;2023-04-06T19:31:55;4;4;
65803;PMS5003;65658;63.740;34.316;2023-04-06T19:39:33;7;8;
65803;PMS5003;65658;63.740;34.316;2023-04-06T19:43:42;7;8;
65803;PMS5003;65658;63.740;34.316;2023-04-06T19:47:28;5;5;
65803;PMS5003;65658;63.740;34.316;2023-04-06T19:55:07;8;9;
65803;PMS5003;65658;63.740;34.316;2023-04-06T19:58:54;9;9;
65803;PMS5003;65658;63.740;34.316;2023-04-06T20:02:41;8;8;
65803;PMS5003;65658;63.740;34.316;2023-04-06T20:06:28;7;7;
65803;PMS5003;65658;63.740;34.316;2023-04-06T20:10:14;5;5;
65803;PMS5003;65658;63.740;34.316;2023-04-06T20:17:52;7;7;
65803;PMS5003;65658;63.740;34.316;2023-04-06T20:21:38;8;9;
65803;PMS5003;65658;63.740;34.316;2023-04-06T20:25:25;10;11;
65803;PMS5003;65658;63.740;34.316;2023-04-06T20:29:12;9;10;
65803;PMS5003;65658;63.740;34.316;2023-04-06T20:32:58;9;9;
65803;PMS5003;65658;63.740;34.316;2023-04-06T20:36:44;10;10;
65803;PMS5003;65658;63.740;34.316;2023-04-06T20:40:31;8;8;
65803;PMS5003;65658;63.740;34.316;2023-04-06T20:44:18;9;9;
65803;PMS5003;65658;63.740;34.316;2023-04-06T20:48:04;10;10;
65803;PMS5003;65658;63.740;34.316;2023-04-06T20:51:52;11;13;
65803;PMS5003;65658;63.740;34.316;2023-04-06T20:55:39;13;15;
65803;PMS5003;65658;63.740;34.316;2023-04-06T20:59:26;47;61;
65803;PMS5003;65658;63.740;34.316;2023-04-06T21:03:19;61;78;
65803;PMS5003;65658;63.740;34.316;2023-04-06T21:07:14;90;98;
65803;PMS5003;65658;63.740;34.316;2023-04-06T21:15:13;232;269;
65803;PMS5003;65658;63.740;34.316;2023-04-06T21:19:26;113;129;
65803;PMS5003;65658;63.740;34.316;2023-04-06T21:35:20;52;66;
65803;PMS5003;65658;63.740;34.316;2023-04-06T21:39:16;49;60;
65803;PMS5003;65658;63.740;34.316;2023-04-06T21:43:40;23;23;
65803;PMS5003;65658;63.740;34.316;2023-04-06T21:47:52;16;16;
65803;PMS5003;65658;63.740;34.316;2023-04-06T21:55:32;23;27;
65803;PMS5003;65658;63.740;34.316;2023-04-06T21:59:20;44;59;
65803;PMS5003;65658;63.740;34.316;2023-04-06T22:03:13;140;166;
65803;PMS5003;65658;63.740;34.316;2023-04-06T22:19:51;143;169;
65803;PMS5003;65658;63.740;34.316;2023-04-06T22:23:54;161;197;
65803;PMS5003;65658;63.740;34.316;2023-04-06T22:27:47;59;77;
65803;PMS5003;65658;63.740;34.316;2023-04-06T22:32:02;68;87;
65803;PMS5003;65658;63.740;34.316;2023-04-06T22:40:05;174;211;
65803;PMS5003;65658;63.740;34.316;2023-04-06T22:43:55;131;159;
65803;PMS5003;65658;63.740;34.316;2023-04-06T22:51:46;28;30;
65803;PMS5003;65658;63.740;34.316;2023-04-06T22:55:47;25;27;
65803;PMS5003;65658;63.740;34.316;2023-04-06T22:59:35;24;27;
65803;PMS5003;65658;63.740;34.316;2023-04-06T23:03:36;17;17;
65803;PMS5003;65658;63.740;34.316;2023-04-06T23:07:59;27;31;
65803;PMS5003;65658;63.740;34.316;2023-04-06T23:15:50;12;15;
65803;PMS5003;65658;63.740;34.316;2023-04-06T23:19:49;14;14;
65803;PMS5003;65658;63.740;34.316;2023-04-06T23:23:36;11;12;
65803;PMS5003;65658;63.740;34.316;2023-04-06T23:27:35;12;14;
65803;PMS5003;65658;63.740;34.316;2023-04-06T23:31:24;11;12;
65803;PMS5003;65658;63.740;34.316;2023-04-06T23:39:25;4;4;
65803;PMS5003;65658;63.740;34.316;2023-04-06T23:43:23;8;8;
65803;PMS5003;65658;63.740;34.316;2023-04-06T23:51:01;8;8;
65803;PMS5003;65658;63.740;34.316;2023-04-06T23:54:59;7;8;
65803;PMS5003;65658;63.740;34.316;2023-04-06T23:58:46;12;12;
